Rechercher aéroport 
image banner adimage banner adimage banner ad
image banner ad

KCSL - O'sullivan Ahp

Situé à Camp San Luis Obispo, United States

ICAO - CSL, IATA -

Données fournies par Airmate  

Information générale

Coordonnées: N35°19'60" W120°44'4"
Élévation : 250 feet MSL.
Variation magnétique : 15° East
Voir autres Aéroports à California

Données opérationnelles

Special qualification required
Heure actuelle UTC:
Heure actuelle locale:
Météo à : KSBP - San Luis County Rgnl ( 14 km )
METAR: KSBP 020356Z AUTO 32010KT 10SM CLR 18/12 A3008 RMK AO2 SLP184 T01780117 $
TAF: KSBP 012348Z 0200/0224 31012KT P6SM SKC FM020300 31006KT P6SM SKC FM020600 31004KT 6SM BR SCT004 FM021000 VRB03KT 1/2SM FG OVC002 FM021500 VRB03KT 6SM BR SCT004 FM021700 30010KT P6SM SKC
Voir NOTAMs / SUP AIP / TFR affectant cet aéroport [VIEW]
Fréquences de communication: [VIEW]

Pistes:

Coordonnées de l'aéroport

Adresse: Camp San Luis Obispo United States

Vue satellite de KCSL